sensor_id;sensor_type;location;lat;lon;timestamp;P1;durP1;ratioP1;P2;durP2;ratioP2
27209;SDS011;14721;42.668;23.386;2023-03-31T00:00:45;11.57;;;3.87;;
27209;SDS011;14721;42.668;23.386;2023-03-31T00:03:15;7.17;;;3.90;;
27209;SDS011;14721;42.668;23.386;2023-03-31T00:05:48;11.60;;;4.60;;
27209;SDS011;14721;42.668;23.386;2023-03-31T00:08:19;9.17;;;3.57;;
27209;SDS011;14721;42.668;23.386;2023-03-31T00:10:46;6.97;;;3.60;;
27209;SDS011;14721;42.668;23.386;2023-03-31T00:13:17;9.43;;;4.40;;
27209;SDS011;14721;42.668;23.386;2023-03-31T00:15:43;10.93;;;4.57;;
27209;SDS011;14721;42.668;23.386;2023-03-31T00:18:11;15.33;;;3.97;;
27209;SDS011;14721;42.668;23.386;2023-03-31T00:20:37;10.37;;;3.53;;
27209;SDS011;14721;42.668;23.386;2023-03-31T00:23:03;9.73;;;3.90;;
27209;SDS011;14721;42.668;23.386;2023-03-31T00:25:38;7.57;;;4.33;;
27209;SDS011;14721;42.668;23.386;2023-03-31T00:28:14;9.13;;;3.83;;
27209;SDS011;14721;42.668;23.386;2023-03-31T00:30:40;8.07;;;4.30;;
27209;SDS011;14721;42.668;23.386;2023-03-31T00:33:08;7.07;;;4.07;;
27209;SDS011;14721;42.668;23.386;2023-03-31T00:35:34;13.07;;;4.30;;
27209;SDS011;14721;42.668;23.386;2023-03-31T00:38:03;7.87;;;3.43;;
27209;SDS011;14721;42.668;23.386;2023-03-31T00:40:30;8.33;;;3.80;;
27209;SDS011;14721;42.668;23.386;2023-03-31T00:42:56;8.37;;;4.50;;
27209;SDS011;14721;42.668;23.386;2023-03-31T00:45:23;7.67;;;3.77;;
27209;SDS011;14721;42.668;23.386;2023-03-31T00:48:00;10.10;;;3.90;;
27209;SDS011;14721;42.668;23.386;2023-03-31T00:50:34;9.57;;;4.10;;
27209;SDS011;14721;42.668;23.386;2023-03-31T00:53:11;9.17;;;3.57;;
27209;SDS011;14721;42.668;23.386;2023-03-31T00:55:48;8.80;;;4.37;;
27209;SDS011;14721;42.668;23.386;2023-03-31T00:58:17;8.20;;;3.57;;
27209;SDS011;14721;42.668;23.386;2023-03-31T01:00:48;8.83;;;3.40;;
27209;SDS011;14721;42.668;23.386;2023-03-31T01:03:18;7.53;;;3.77;;
27209;SDS011;14721;42.668;23.386;2023-03-31T01:05:50;10.87;;;4.00;;
27209;SDS011;14721;42.668;23.386;2023-03-31T01:08:22;7.87;;;3.70;;
27209;SDS011;14721;42.668;23.386;2023-03-31T01:10:52;8.20;;;4.17;;
27209;SDS011;14721;42.668;23.386;2023-03-31T01:13:21;6.00;;;2.97;;
27209;SDS011;14721;42.668;23.386;2023-03-31T01:15:48;8.97;;;3.70;;
27209;SDS011;14721;42.668;23.386;2023-03-31T01:18:14;6.80;;;3.40;;
27209;SDS011;14721;42.668;23.386;2023-03-31T01:36:03;6.47;;;3.20;;
27209;SDS011;14721;42.668;23.386;2023-03-31T01:39:12;8.50;;;4.00;;
27209;SDS011;14721;42.668;23.386;2023-03-31T01:41:53;14.77;;;4.60;;
27209;SDS011;14721;42.668;23.386;2023-03-31T01:47:14;10.37;;;4.60;;
27209;SDS011;14721;42.668;23.386;2023-03-31T01:50:05;11.07;;;4.80;;
27209;SDS011;14721;42.668;23.386;2023-03-31T01:55:20;16.80;;;6.27;;
27209;SDS011;14721;42.668;23.386;2023-03-31T01:57:56;14.90;;;5.13;;
27209;SDS011;14721;42.668;23.386;2023-03-31T02:00:28;10.63;;;4.57;;
27209;SDS011;14721;42.668;23.386;2023-03-31T02:05:24;8.30;;;4.67;;
27209;SDS011;14721;42.668;23.386;2023-03-31T02:08:05;16.77;;;6.47;;
27209;SDS011;14721;42.668;23.386;2023-03-31T02:10:35;10.07;;;5.10;;
27209;SDS011;14721;42.668;23.386;2023-03-31T02:13:03;10.60;;;5.13;;
27209;SDS011;14721;42.668;23.386;2023-03-31T02:15:35;11.27;;;5.17;;
27209;SDS011;14721;42.668;23.386;2023-03-31T02:18:08;13.17;;;5.60;;
27209;SDS011;14721;42.668;23.386;2023-03-31T02:20:38;9.27;;;4.87;;
27209;SDS011;14721;42.668;23.386;2023-03-31T02:23:11;11.07;;;5.07;;
27209;SDS011;14721;42.668;23.386;2023-03-31T02:25:45;11.60;;;6.13;;
27209;SDS011;14721;42.668;23.386;2023-03-31T02:28:17;12.07;;;5.87;;
27209;SDS011;14721;42.668;23.386;2023-03-31T02:33:17;16.40;;;5.87;;
27209;SDS011;14721;42.668;23.386;2023-03-31T02:35:43;19.80;;;6.23;;
27209;SDS011;14721;42.668;23.386;2023-03-31T02:38:09;15.87;;;7.33;;
27209;SDS011;14721;42.668;23.386;2023-03-31T02:40:35;19.00;;;6.83;;
27209;SDS011;14721;42.668;23.386;2023-03-31T02:43:01;14.00;;;6.77;;
27209;SDS011;14721;42.668;23.386;2023-03-31T02:48:31;20.90;;;8.03;;
27209;SDS011;14721;42.668;23.386;2023-03-31T02:53:41;19.80;;;7.80;;
27209;SDS011;14721;42.668;23.386;2023-03-31T03:07:56;23.67;;;8.47;;
27209;SDS011;14721;42.668;23.386;2023-03-31T03:10:47;17.53;;;7.63;;
27209;SDS011;14721;42.668;23.386;2023-03-31T03:16:15;18.47;;;9.50;;
27209;SDS011;14721;42.668;23.386;2023-03-31T03:19:06;14.67;;;8.00;;
27209;SDS011;14721;42.668;23.386;2023-03-31T03:21:33;20.80;;;9.03;;
27209;SDS011;14721;42.668;23.386;2023-03-31T03:24:00;15.93;;;7.07;;
27209;SDS011;14721;42.668;23.386;2023-03-31T03:26:34;19.60;;;8.67;;
27209;SDS011;14721;42.668;23.386;2023-03-31T03:29:03;16.47;;;8.00;;
27209;SDS011;14721;42.668;23.386;2023-03-31T03:31:30;12.07;;;6.53;;
27209;SDS011;14721;42.668;23.386;2023-03-31T03:34:01;12.23;;;7.10;;
27209;SDS011;14721;42.668;23.386;2023-03-31T03:36:27;15.70;;;7.53;;
27209;SDS011;14721;42.668;23.386;2023-03-31T03:38:52;12.57;;;6.97;;
27209;SDS011;14721;42.668;23.386;2023-03-31T03:41:18;18.27;;;7.30;;
27209;SDS011;14721;42.668;23.386;2023-03-31T03:43:47;15.53;;;6.57;;
27209;SDS011;14721;42.668;23.386;2023-03-31T03:46:17;15.53;;;6.57;;
27209;SDS011;14721;42.668;23.386;2023-03-31T03:48:43;15.07;;;8.33;;
27209;SDS011;14721;42.668;23.386;2023-03-31T03:51:08;27.63;;;7.17;;
27209;SDS011;14721;42.668;23.386;2023-03-31T03:53:35;15.27;;;6.33;;
27209;SDS011;14721;42.668;23.386;2023-03-31T03:56:00;16.27;;;5.53;;
27209;SDS011;14721;42.668;23.386;2023-03-31T03:58:26;11.67;;;5.63;;
27209;SDS011;14721;42.668;23.386;2023-03-31T04:00:52;7.03;;;3.97;;
27209;SDS011;14721;42.668;23.386;2023-03-31T04:03:17;8.17;;;4.03;;
27209;SDS011;14721;42.668;23.386;2023-03-31T04:05:43;4.77;;;2.80;;
27209;SDS011;14721;42.668;23.386;2023-03-31T04:08:09;7.97;;;4.93;;
27209;SDS011;14721;42.668;23.386;2023-03-31T04:10:34;8.40;;;3.57;;
27209;SDS011;14721;42.668;23.386;2023-03-31T04:13:00;9.07;;;4.53;;
27209;SDS011;14721;42.668;23.386;2023-03-31T04:15:27;9.20;;;4.33;;
27209;SDS011;14721;42.668;23.386;2023-03-31T04:17:52;5.97;;;3.43;;
27209;SDS011;14721;42.668;23.386;2023-03-31T04:20:19;9.07;;;3.47;;
27209;SDS011;14721;42.668;23.386;2023-03-31T04:22:46;9.50;;;3.50;;
27209;SDS011;14721;42.668;23.386;2023-03-31T04:25:15;7.40;;;3.17;;
27209;SDS011;14721;42.668;23.386;2023-03-31T04:27:44;9.33;;;3.90;;
27209;SDS011;14721;42.668;23.386;2023-03-31T04:30:23;14.93;;;3.27;;
27209;SDS011;14721;42.668;23.386;2023-03-31T04:32:56;7.03;;;3.27;;
27209;SDS011;14721;42.668;23.386;2023-03-31T04:35:24;8.93;;;3.33;;
27209;SDS011;14721;42.668;23.386;2023-03-31T04:37:52;7.27;;;3.63;;
27209;SDS011;14721;42.668;23.386;2023-03-31T04:40:26;5.90;;;3.80;;
27209;SDS011;14721;42.668;23.386;2023-03-31T04:42:52;8.00;;;3.57;;
27209;SDS011;14721;42.668;23.386;2023-03-31T04:45:17;8.87;;;3.77;;
27209;SDS011;14721;42.668;23.386;2023-03-31T04:47:43;11.73;;;3.93;;
27209;SDS011;14721;42.668;23.386;2023-03-31T04:50:09;11.90;;;4.10;;
27209;SDS011;14721;42.668;23.386;2023-03-31T04:52:35;13.47;;;5.50;;
27209;SDS011;14721;42.668;23.386;2023-03-31T04:55:04;11.00;;;4.60;;
27209;SDS011;14721;42.668;23.386;2023-03-31T04:57:30;8.60;;;4.70;;
27209;SDS011;14721;42.668;23.386;2023-03-31T04:59:56;11.83;;;4.97;;
27209;SDS011;14721;42.668;23.386;2023-03-31T05:02:21;5.40;;;3.70;;
27209;SDS011;14721;42.668;23.386;2023-03-31T05:04:50;9.37;;;5.07;;
27209;SDS011;14721;42.668;23.386;2023-03-31T05:07:17;6.97;;;4.43;;
27209;SDS011;14721;42.668;23.386;2023-03-31T05:09:44;8.07;;;3.93;;
27209;SDS011;14721;42.668;23.386;2023-03-31T05:12:10;7.17;;;3.80;;
27209;SDS011;14721;42.668;23.386;2023-03-31T05:14:36;8.83;;;4.10;;
27209;SDS011;14721;42.668;23.386;2023-03-31T05:17:02;7.80;;;3.30;;
27209;SDS011;14721;42.668;23.386;2023-03-31T05:19:31;6.57;;;3.33;;
27209;SDS011;14721;42.668;23.386;2023-03-31T05:21:56;8.33;;;4.17;;
27209;SDS011;14721;42.668;23.386;2023-03-31T05:24:22;8.63;;;3.80;;
27209;SDS011;14721;42.668;23.386;2023-03-31T05:26:53;8.77;;;4.43;;
27209;SDS011;14721;42.668;23.386;2023-03-31T05:29:22;9.57;;;4.23;;
27209;SDS011;14721;42.668;23.386;2023-03-31T05:31:48;10.63;;;3.67;;
27209;SDS011;14721;42.668;23.386;2023-03-31T05:34:14;10.03;;;4.07;;
27209;SDS011;14721;42.668;23.386;2023-03-31T05:36:40;7.63;;;4.43;;
27209;SDS011;14721;42.668;23.386;2023-03-31T05:39:07;10.60;;;4.93;;
27209;SDS011;14721;42.668;23.386;2023-03-31T05:41:33;10.87;;;5.10;;
27209;SDS011;14721;42.668;23.386;2023-03-31T05:43:59;11.13;;;4.70;;
27209;SDS011;14721;42.668;23.386;2023-03-31T05:46:28;12.87;;;5.50;;
27209;SDS011;14721;42.668;23.386;2023-03-31T05:48:57;9.40;;;5.53;;
27209;SDS011;14721;42.668;23.386;2023-03-31T05:51:28;11.87;;;5.37;;
27209;SDS011;14721;42.668;23.386;2023-03-31T05:53:54;8.53;;;4.80;;
27209;SDS011;14721;42.668;23.386;2023-03-31T05:56:20;8.10;;;3.97;;
27209;SDS011;14721;42.668;23.386;2023-03-31T05:58:46;7.77;;;3.60;;
27209;SDS011;14721;42.668;23.386;2023-03-31T06:01:13;7.30;;;3.93;;
27209;SDS011;14721;42.668;23.386;2023-03-31T06:03:44;9.40;;;3.27;;
27209;SDS011;14721;42.668;23.386;2023-03-31T06:06:10;7.73;;;2.90;;
27209;SDS011;14721;42.668;23.386;2023-03-31T06:08:41;7.13;;;2.87;;
27209;SDS011;14721;42.668;23.386;2023-03-31T06:11:09;7.37;;;3.30;;
27209;SDS011;14721;42.668;23.386;2023-03-31T06:13:37;8.47;;;3.10;;
27209;SDS011;14721;42.668;23.386;2023-03-31T06:16:03;7.33;;;3.30;;
27209;SDS011;14721;42.668;23.386;2023-03-31T06:18:31;7.10;;;2.70;;
27209;SDS011;14721;42.668;23.386;2023-03-31T06:20:58;6.23;;;2.70;;
27209;SDS011;14721;42.668;23.386;2023-03-31T06:23:24;9.87;;;3.20;;
27209;SDS011;14721;42.668;23.386;2023-03-31T06:25:51;7.87;;;3.07;;
27209;SDS011;14721;42.668;23.386;2023-03-31T06:28:17;7.57;;;2.93;;
27209;SDS011;14721;42.668;23.386;2023-03-31T06:30:44;7.50;;;2.97;;
27209;SDS011;14721;42.668;23.386;2023-03-31T06:33:09;8.73;;;3.73;;
27209;SDS011;14721;42.668;23.386;2023-03-31T06:35:39;10.63;;;3.83;;
27209;SDS011;14721;42.668;23.386;2023-03-31T06:38:05;8.57;;;3.83;;
27209;SDS011;14721;42.668;23.386;2023-03-31T06:40:31;6.43;;;3.07;;
27209;SDS011;14721;42.668;23.386;2023-03-31T06:42:57;6.17;;;3.40;;
27209;SDS011;14721;42.668;23.386;2023-03-31T06:45:22;9.00;;;3.57;;
27209;SDS011;14721;42.668;23.386;2023-03-31T06:47:48;10.43;;;3.50;;
27209;SDS011;14721;42.668;23.386;2023-03-31T06:50:13;6.80;;;3.40;;
27209;SDS011;14721;42.668;23.386;2023-03-31T06:52:39;7.47;;;3.30;;
27209;SDS011;14721;42.668;23.386;2023-03-31T06:55:05;8.77;;;4.63;;
27209;SDS011;14721;42.668;23.386;2023-03-31T06:57:33;13.45;;;4.60;;
27209;SDS011;14721;42.668;23.386;2023-03-31T06:59:59;8.30;;;3.45;;
27209;SDS011;14721;42.668;23.386;2023-03-31T07:02:24;11.68;;;4.57;;
27209;SDS011;14721;42.668;23.386;2023-03-31T07:04:50;9.88;;;4.00;;
27209;SDS011;14721;42.668;23.386;2023-03-31T07:07:16;10.93;;;4.00;;
27209;SDS011;14721;42.668;23.386;2023-03-31T07:09:42;10.40;;;4.20;;
27209;SDS011;14721;42.668;23.386;2023-03-31T07:12:07;13.10;;;4.10;;
27209;SDS011;14721;42.668;23.386;2023-03-31T07:14:34;12.82;;;4.65;;
27209;SDS011;14721;42.668;23.386;2023-03-31T07:17:00;7.88;;;4.20;;
27209;SDS011;14721;42.668;23.386;2023-03-31T07:19:25;14.02;;;5.40;;
27209;SDS011;14721;42.668;23.386;2023-03-31T07:21:51;17.25;;;4.97;;
27209;SDS011;14721;42.668;23.386;2023-03-31T07:24:17;11.32;;;5.20;;
27209;SDS011;14721;42.668;23.386;2023-03-31T07:26:42;11.48;;;4.93;;
27209;SDS011;14721;42.668;23.386;2023-03-31T07:29:08;9.07;;;3.75;;
27209;SDS011;14721;42.668;23.386;2023-03-31T07:31:33;12.38;;;4.80;;
27209;SDS011;14721;42.668;23.386;2023-03-31T07:34:00;13.38;;;4.97;;
27209;SDS011;14721;42.668;23.386;2023-03-31T07:36:27;8.52;;;4.15;;
27209;SDS011;14721;42.668;23.386;2023-03-31T07:38:52;9.38;;;4.40;;
27209;SDS011;14721;42.668;23.386;2023-03-31T07:41:19;7.25;;;4.00;;
27209;SDS011;14721;42.668;23.386;2023-03-31T07:43:45;13.65;;;4.75;;
27209;SDS011;14721;42.668;23.386;2023-03-31T07:46:16;8.68;;;4.25;;
27209;SDS011;14721;42.668;23.386;2023-03-31T07:48:46;12.57;;;4.03;;
27209;SDS011;14721;42.668;23.386;2023-03-31T07:51:13;10.85;;;4.30;;
27209;SDS011;14721;42.668;23.386;2023-03-31T07:53:43;7.97;;;4.05;;
27209;SDS011;14721;42.668;23.386;2023-03-31T07:56:10;8.57;;;4.32;;
27209;SDS011;14721;42.668;23.386;2023-03-31T07:58:35;8.85;;;3.05;;
27209;SDS011;14721;42.668;23.386;2023-03-31T08:01:01;6.53;;;3.53;;
27209;SDS011;14721;42.668;23.386;2023-03-31T08:03:27;4.60;;;2.60;;
27209;SDS011;14721;42.668;23.386;2023-03-31T08:05:53;8.00;;;2.60;;
27209;SDS011;14721;42.668;23.386;2023-03-31T08:08:19;8.80;;;3.22;;
27209;SDS011;14721;42.668;23.386;2023-03-31T08:10:45;8.02;;;3.10;;
27209;SDS011;14721;42.668;23.386;2023-03-31T08:13:11;7.43;;;3.08;;
27209;SDS011;14721;42.668;23.386;2023-03-31T08:15:37;4.63;;;2.75;;
27209;SDS011;14721;42.668;23.386;2023-03-31T08:18:02;3.60;;;2.35;;
27209;SDS011;14721;42.668;23.386;2023-03-31T08:20:29;5.40;;;1.83;;
27209;SDS011;14721;42.668;23.386;2023-03-31T08:22:55;3.20;;;1.90;;
27209;SDS011;14721;42.668;23.386;2023-03-31T08:25:20;5.55;;;2.05;;
27209;SDS011;14721;42.668;23.386;2023-03-31T08:27:47;11.57;;;2.28;;
27209;SDS011;14721;42.668;23.386;2023-03-31T08:30:15;5.60;;;2.40;;
27209;SDS011;14721;42.668;23.386;2023-03-31T08:32:43;7.50;;;2.67;;
27209;SDS011;14721;42.668;23.386;2023-03-31T08:35:08;4.40;;;1.92;;
27209;SDS011;14721;42.668;23.386;2023-03-31T08:37:34;4.97;;;1.75;;
27209;SDS011;14721;42.668;23.386;2023-03-31T08:40:01;7.07;;;2.45;;
27209;SDS011;14721;42.668;23.386;2023-03-31T08:42:34;11.75;;;2.05;;
27209;SDS011;14721;42.668;23.386;2023-03-31T08:47:58;6.25;;;1.92;;
27209;SDS011;14721;42.668;23.386;2023-03-31T08:50:31;7.68;;;2.67;;
27209;SDS011;14721;42.668;23.386;2023-03-31T08:53:06;9.77;;;2.05;;
27209;SDS011;14721;42.668;23.386;2023-03-31T08:55:45;4.30;;;1.67;;
27209;SDS011;14721;42.668;23.386;2023-03-31T09:03:49;6.53;;;2.08;;
27209;SDS011;14721;42.668;23.386;2023-03-31T09:06:19;6.65;;;2.15;;
27209;SDS011;14721;42.668;23.386;2023-03-31T09:08:49;8.57;;;1.50;;
27209;SDS011;14721;42.668;23.386;2023-03-31T09:13:52;7.68;;;3.20;;
27209;SDS011;14721;42.668;23.386;2023-03-31T09:19:09;8.77;;;2.20;;
27209;SDS011;14721;42.668;23.386;2023-03-31T09:21:42;4.03;;;1.58;;
27209;SDS011;14721;42.668;23.386;2023-03-31T09:24:18;3.35;;;1.80;;
27209;SDS011;14721;42.668;23.386;2023-03-31T09:27:00;17.83;;;7.82;;
27209;SDS011;14721;42.668;23.386;2023-03-31T09:32:00;7.60;;;1.30;;
27209;SDS011;14721;42.668;23.386;2023-03-31T09:34:34;4.90;;;1.30;;
27209;SDS011;14721;42.668;23.386;2023-03-31T09:37:01;1.48;;;0.88;;
27209;SDS011;14721;42.668;23.386;2023-03-31T09:39:27;8.65;;;1.92;;
27209;SDS011;14721;42.668;23.386;2023-03-31T09:41:52;5.18;;;1.27;;
27209;SDS011;14721;42.668;23.386;2023-03-31T09:44:32;4.70;;;1.70;;
27209;SDS011;14721;42.668;23.386;2023-03-31T09:47:05;2.17;;;1.38;;
27209;SDS011;14721;42.668;23.386;2023-03-31T09:49:35;5.07;;;1.98;;
27209;SDS011;14721;42.668;23.386;2023-03-31T09:52:04;11.18;;;2.05;;
27209;SDS011;14721;42.668;23.386;2023-03-31T09:54:51;5.72;;;1.88;;
27209;SDS011;14721;42.668;23.386;2023-03-31T09:57:22;3.22;;;1.20;;
27209;SDS011;14721;42.668;23.386;2023-03-31T09:59:52;6.78;;;1.80;;
27209;SDS011;14721;42.668;23.386;2023-03-31T10:05:04;4.95;;;1.63;;
27209;SDS011;14721;42.668;23.386;2023-03-31T10:07:32;5.18;;;1.70;;
27209;SDS011;14721;42.668;23.386;2023-03-31T10:09:58;3.47;;;1.50;;
27209;SDS011;14721;42.668;23.386;2023-03-31T10:12:25;5.07;;;1.50;;
27209;SDS011;14721;42.668;23.386;2023-03-31T10:15:19;3.42;;;1.25;;
27209;SDS011;14721;42.668;23.386;2023-03-31T10:17:46;4.72;;;1.55;;
27209;SDS011;14721;42.668;23.386;2023-03-31T10:20:36;3.90;;;1.52;;
27209;SDS011;14721;42.668;23.386;2023-03-31T10:23:03;1.58;;;0.98;;
27209;SDS011;14721;42.668;23.386;2023-03-31T10:25:39;5.80;;;1.80;;
27209;SDS011;14721;42.668;23.386;2023-03-31T10:28:05;2.90;;;1.23;;
27209;SDS011;14721;42.668;23.386;2023-03-31T10:30:34;6.50;;;1.52;;
27209;SDS011;14721;42.668;23.386;2023-03-31T10:33:11;4.13;;;1.50;;
27209;SDS011;14721;42.668;23.386;2023-03-31T10:35:41;2.90;;;1.33;;
27209;SDS011;14721;42.668;23.386;2023-03-31T10:38:11;4.97;;;1.50;;
27209;SDS011;14721;42.668;23.386;2023-03-31T10:40:55;6.40;;;1.77;;
27209;SDS011;14721;42.668;23.386;2023-03-31T10:45:58;4.88;;;1.50;;
27209;SDS011;14721;42.668;23.386;2023-03-31T10:48:25;4.03;;;1.35;;
27209;SDS011;14721;42.668;23.386;2023-03-31T10:50:51;3.25;;;1.63;;
27209;SDS011;14721;42.668;23.386;2023-03-31T10:53:18;6.75;;;1.40;;
27209;SDS011;14721;42.668;23.386;2023-03-31T10:55:50;4.60;;;1.80;;
27209;SDS011;14721;42.668;23.386;2023-03-31T11:01:19;2.10;;;1.45;;
27209;SDS011;14721;42.668;23.386;2023-03-31T11:06:59;2.85;;;1.40;;
27209;SDS011;14721;42.668;23.386;2023-03-31T11:10:09;3.72;;;1.30;;
27209;SDS011;14721;42.668;23.386;2023-03-31T11:12:36;2.28;;;1.13;;
27209;SDS011;14721;42.668;23.386;2023-03-31T11:15:21;5.65;;;1.30;;
27209;SDS011;14721;42.668;23.386;2023-03-31T11:30:49;4.95;;;1.42;;
27209;SDS011;14721;42.668;23.386;2023-03-31T11:41:44;4.40;;;1.55;;
27209;SDS011;14721;42.668;23.386;2023-03-31T11:44:15;2.75;;;1.27;;
27209;SDS011;14721;42.668;23.386;2023-03-31T11:46:45;3.67;;;1.23;;
27209;SDS011;14721;42.668;23.386;2023-03-31T11:52:07;5.40;;;1.50;;
27209;SDS011;14721;42.668;23.386;2023-03-31T11:57:41;3.50;;;1.30;;
27209;SDS011;14721;42.668;23.386;2023-03-31T12:00:21;3.63;;;1.70;;
27209;SDS011;14721;42.668;23.386;2023-03-31T12:03:00;6.60;;;1.42;;
27209;SDS011;14721;42.668;23.386;2023-03-31T12:05:44;6.05;;;1.67;;
27209;SDS011;14721;42.668;23.386;2023-03-31T12:11:30;3.30;;;1.48;;
27209;SDS011;14721;42.668;23.386;2023-03-31T12:13:58;4.60;;;1.33;;
27209;SDS011;14721;42.668;23.386;2023-03-31T12:16:37;2.78;;;1.35;;
27209;SDS011;14721;42.668;23.386;2023-03-31T12:21:33;5.28;;;1.50;;
27209;SDS011;14721;42.668;23.386;2023-03-31T12:24:02;2.95;;;1.50;;
27209;SDS011;14721;42.668;23.386;2023-03-31T12:26:31;2.03;;;1.13;;
27209;SDS011;14721;42.668;23.386;2023-03-31T12:29:03;3.95;;;1.60;;
27209;SDS011;14721;42.668;23.386;2023-03-31T12:31:37;11.55;;;1.60;;
27209;SDS011;14721;42.668;23.386;2023-03-31T12:34:09;2.92;;;1.30;;
27209;SDS011;14721;42.668;23.386;2023-03-31T12:36:45;4.47;;;1.30;;
27209;SDS011;14721;42.668;23.386;2023-03-31T12:39:37;5.05;;;2.10;;
27209;SDS011;14721;42.668;23.386;2023-03-31T12:44:50;7.55;;;2.00;;
27209;SDS011;14721;42.668;23.386;2023-03-31T12:47:33;3.90;;;1.63;;
27209;SDS011;14721;42.668;23.386;2023-03-31T13:06:04;3.75;;;1.50;;
27209;SDS011;14721;42.668;23.386;2023-03-31T13:11:17;5.18;;;1.30;;
27209;SDS011;14721;42.668;23.386;2023-03-31T13:13:59;5.95;;;1.85;;
27209;SDS011;14721;42.668;23.386;2023-03-31T13:16:30;7.05;;;1.55;;
27209;SDS011;14721;42.668;23.386;2023-03-31T13:18:58;4.05;;;1.75;;
27209;SDS011;14721;42.668;23.386;2023-03-31T13:21:24;4.28;;;1.67;;
27209;SDS011;14721;42.668;23.386;2023-03-31T13:23:50;7.82;;;2.42;;
27209;SDS011;14721;42.668;23.386;2023-03-31T13:29:17;3.13;;;1.40;;
27209;SDS011;14721;42.668;23.386;2023-03-31T13:37:15;4.60;;;1.38;;
27209;SDS011;14721;42.668;23.386;2023-03-31T13:45:45;5.03;;;1.42;;
27209;SDS011;14721;42.668;23.386;2023-03-31T13:48:22;7.10;;;1.77;;
27209;SDS011;14721;42.668;23.386;2023-03-31T13:50:59;6.57;;;1.67;;
27209;SDS011;14721;42.668;23.386;2023-03-31T13:56:45;5.43;;;2.00;;
27209;SDS011;14721;42.668;23.386;2023-03-31T13:59:22;4.32;;;2.28;;
27209;SDS011;14721;42.668;23.386;2023-03-31T14:08:55;5.78;;;1.45;;
27209;SDS011;14721;42.668;23.386;2023-03-31T14:13:58;5.25;;;1.40;;
27209;SDS011;14721;42.668;23.386;2023-03-31T14:16:25;7.78;;;1.77;;
27209;SDS011;14721;42.668;23.386;2023-03-31T14:18:53;3.35;;;1.90;;
27209;SDS011;14721;42.668;23.386;2023-03-31T14:21:33;4.20;;;1.45;;
27209;SDS011;14721;42.668;23.386;2023-03-31T14:32:04;7.50;;;2.15;;
27209;SDS011;14721;42.668;23.386;2023-03-31T14:37:22;6.47;;;1.92;;
27209;SDS011;14721;42.668;23.386;2023-03-31T14:39:49;5.68;;;1.60;;
27209;SDS011;14721;42.668;23.386;2023-03-31T14:42:20;3.40;;;1.70;;
27209;SDS011;14721;42.668;23.386;2023-03-31T14:45:15;5.40;;;1.40;;
27209;SDS011;14721;42.668;23.386;2023-03-31T14:48:02;6.57;;;2.75;;
27209;SDS011;14721;42.668;23.386;2023-03-31T14:50:37;7.63;;;1.98;;
27209;SDS011;14721;42.668;23.386;2023-03-31T14:53:12;8.23;;;1.58;;
27209;SDS011;14721;42.668;23.386;2023-03-31T14:55:40;10.23;;;2.22;;
27209;SDS011;14721;42.668;23.386;2023-03-31T14:58:10;6.47;;;2.20;;
27209;SDS011;14721;42.668;23.386;2023-03-31T15:00:38;3.25;;;1.23;;
27209;SDS011;14721;42.668;23.386;2023-03-31T15:03:06;4.38;;;1.80;;
27209;SDS011;14721;42.668;23.386;2023-03-31T15:05:37;5.82;;;1.42;;
27209;SDS011;14721;42.668;23.386;2023-03-31T15:08:07;5.93;;;2.22;;
27209;SDS011;14721;42.668;23.386;2023-03-31T15:10:42;6.60;;;1.77;;
27209;SDS011;14721;42.668;23.386;2023-03-31T15:13:18;5.43;;;1.52;;
27209;SDS011;14721;42.668;23.386;2023-03-31T15:15:48;2.35;;;1.45;;
27209;SDS011;14721;42.668;23.386;2023-03-31T15:18:14;4.32;;;1.50;;
27209;SDS011;14721;42.668;23.386;2023-03-31T15:20:42;3.67;;;1.65;;
27209;SDS011;14721;42.668;23.386;2023-03-31T15:23:21;5.25;;;1.38;;
27209;SDS011;14721;42.668;23.386;2023-03-31T15:28:46;2.88;;;1.52;;
27209;SDS011;14721;42.668;23.386;2023-03-31T15:31:17;9.80;;;2.35;;
27209;SDS011;14721;42.668;23.386;2023-03-31T15:33:43;5.97;;;1.60;;
27209;SDS011;14721;42.668;23.386;2023-03-31T15:36:11;2.63;;;1.20;;
27209;SDS011;14721;42.668;23.386;2023-03-31T15:38:38;5.38;;;1.92;;
27209;SDS011;14721;42.668;23.386;2023-03-31T15:41:14;4.68;;;1.42;;
27209;SDS011;14721;42.668;23.386;2023-03-31T15:43:46;4.93;;;1.67;;
27209;SDS011;14721;42.668;23.386;2023-03-31T15:49:04;3.97;;;1.33;;
27209;SDS011;14721;42.668;23.386;2023-03-31T15:51:46;4.40;;;1.20;;
27209;SDS011;14721;42.668;23.386;2023-03-31T15:57:13;1.75;;;1.15;;
27209;SDS011;14721;42.668;23.386;2023-03-31T15:59:48;6.40;;;2.25;;
27209;SDS011;14721;42.668;23.386;2023-03-31T16:02:16;6.97;;;1.63;;
27209;SDS011;14721;42.668;23.386;2023-03-31T16:04:48;7.35;;;1.55;;
27209;SDS011;14721;42.668;23.386;2023-03-31T16:09:48;4.68;;;1.60;;
27209;SDS011;14721;42.668;23.386;2023-03-31T16:14:55;7.75;;;1.77;;
27209;SDS011;14721;42.668;23.386;2023-03-31T16:17:29;3.15;;;1.27;;
27209;SDS011;14721;42.668;23.386;2023-03-31T16:20:00;4.25;;;1.42;;
27209;SDS011;14721;42.668;23.386;2023-03-31T16:22:40;4.72;;;1.60;;
27209;SDS011;14721;42.668;23.386;2023-03-31T16:25:15;7.07;;;1.52;;
27209;SDS011;14721;42.668;23.386;2023-03-31T16:27:47;4.90;;;1.70;;
27209;SDS011;14721;42.668;23.386;2023-03-31T16:30:21;5.38;;;2.55;;
27209;SDS011;14721;42.668;23.386;2023-03-31T16:32:58;3.28;;;1.00;;
27209;SDS011;14721;42.668;23.386;2023-03-31T16:35:33;10.32;;;1.50;;
27209;SDS011;14721;42.668;23.386;2023-03-31T16:38:10;5.88;;;1.75;;
27209;SDS011;14721;42.668;23.386;2023-03-31T16:40:38;8.77;;;1.92;;
27209;SDS011;14721;42.668;23.386;2023-03-31T16:43:09;5.15;;;1.75;;
27209;SDS011;14721;42.668;23.386;2023-03-31T16:45:42;9.75;;;2.05;;
27209;SDS011;14721;42.668;23.386;2023-03-31T16:48:11;6.03;;;2.17;;
27209;SDS011;14721;42.668;23.386;2023-03-31T16:50:37;8.90;;;2.42;;
27209;SDS011;14721;42.668;23.386;2023-03-31T16:53:03;10.18;;;3.50;;
27209;SDS011;14721;42.668;23.386;2023-03-31T16:55:29;9.10;;;4.00;;
27209;SDS011;14721;42.668;23.386;2023-03-31T16:57:58;13.07;;;3.42;;
27209;SDS011;14721;42.668;23.386;2023-03-31T17:00:27;11.48;;;3.28;;
27209;SDS011;14721;42.668;23.386;2023-03-31T17:02:58;7.05;;;2.47;;
27209;SDS011;14721;42.668;23.386;2023-03-31T17:05:25;20.98;;;4.25;;
27209;SDS011;14721;42.668;23.386;2023-03-31T17:07:52;8.27;;;2.88;;
27209;SDS011;14721;42.668;23.386;2023-03-31T17:10:19;7.03;;;2.83;;
27209;SDS011;14721;42.668;23.386;2023-03-31T17:12:45;17.15;;;4.72;;
27209;SDS011;14721;42.668;23.386;2023-03-31T17:15:11;9.85;;;3.72;;
27209;SDS011;14721;42.668;23.386;2023-03-31T17:17:39;9.88;;;3.03;;
27209;SDS011;14721;42.668;23.386;2023-03-31T17:20:05;7.45;;;3.17;;
27209;SDS011;14721;42.668;23.386;2023-03-31T17:22:32;10.75;;;3.60;;
27209;SDS011;14721;42.668;23.386;2023-03-31T17:24:58;17.35;;;4.35;;
27209;SDS011;14721;42.668;23.386;2023-03-31T17:27:25;10.05;;;4.82;;
27209;SDS011;14721;42.668;23.386;2023-03-31T17:29:52;7.50;;;3.95;;
27209;SDS011;14721;42.668;23.386;2023-03-31T17:32:18;14.18;;;4.88;;
27209;SDS011;14721;42.668;23.386;2023-03-31T17:34:45;13.50;;;4.82;;
27209;SDS011;14721;42.668;23.386;2023-03-31T17:37:14;12.82;;;4.30;;
27209;SDS011;14721;42.668;23.386;2023-03-31T17:39:41;17.13;;;4.85;;
27209;SDS011;14721;42.668;23.386;2023-03-31T17:42:07;19.70;;;4.15;;
27209;SDS011;14721;42.668;23.386;2023-03-31T17:44:36;8.70;;;3.47;;
27209;SDS011;14721;42.668;23.386;2023-03-31T17:47:01;14.35;;;3.85;;